Time,TemperatureF,DewpointF,PressureIn,WindDirection,WindDirectionDegrees,WindSpeedMPH,WindSpeedGustMPH,Humidity,HourlyPrecipIn,Conditions,Clouds,dailyrainin,SoftwareType,DateUTC
2013-12-23 00:03:00,44.3,-8.9,30.33,WSW,248,0.0,0.9,1,0.00,,,0.00,WUHU216HW,2013-12-23 08:03:00,
2013-12-23 00:08:00,44.3,-8.9,30.33,WSW,248,1.1,1.1,1,0.00,,,0.00,WUHU216HW,2013-12-23 08:08:00,
2013-12-23 00:13:00,44.1,-9.1,30.33,WSW,248,1.1,1.1,1,0.00,,,0.00,WUHU216HW,2013-12-23 08:13:00,
2013-12-23 00:18:00,44.1,-9.1,30.33,WSW,248,1.1,1.1,1,0.00,,,0.00,WUHU216HW,2013-12-23 08:18:00,
2013-12-23 00:23:00,43.9,-9.2,30.32,NNW,338,1.1,1.1,1,0.00,,,0.00,WUHU216HW,2013-12-23 08:23:00,
2013-12-23 00:28:00,43.9,-9.2,30.32,SW,225,0.4,1.1,1,0.00,,,0.00,WUHU216HW,2013-12-23 08:28:00,
2013-12-23 00:33:00,43.6,-9.5,30.32,SSE,158,0.4,1.8,1,0.00,,,0.00,WUHU216HW,2013-12-23 08:33:00,
2013-12-23 00:38:00,43.4,-9.6,30.31,WSW,248,0.4,1.8,1,0.00,,,0.00,WUHU216HW,2013-12-23 08:38:00,
2013-12-23 00:43:00,43.4,-9.6,30.31,SSE,158,2.5,2.5,1,0.00,,,0.00,WUHU216HW,2013-12-23 08:43:00,
2013-12-23 00:48:00,43.2,-9.8,30.31,SSE,158,0.4,2.5,1,0.00,,,0.00,WUHU216HW,2013-12-23 08:48:00,
2013-12-23 00:53:00,43.2,-9.8,30.30,ESE,113,0.7,2.5,1,0.00,,,0.00,WUHU216HW,2013-12-23 08:53:00,
2013-12-23 00:58:00,43.2,-9.8,30.31,ESE,113,0.4,0.9,1,0.00,,,0.00,WUHU216HW,2013-12-23 08:58:00,
2013-12-23 01:03:00,43.2,-9.8,30.30,ESE,113,0.0,0.9,1,0.00,,,0.00,WUHU216HW,2013-12-23 09:03:00,
2013-12-23 01:08:00,43.2,-9.8,30.30,SW,225,1.1,1.1,1,0.00,,,0.00,WUHU216HW,2013-12-23 09:08:00,
2013-12-23 01:13:00,43.2,-9.8,30.31,WNW,293,1.1,1.8,1,0.00,,,0.00,WUHU216HW,2013-12-23 09:13:00,
2013-12-23 01:18:00,43.4,-9.6,30.31,WNW,293,0.0,1.8,1,0.00,,,0.00,WUHU216HW,2013-12-23 09:18:00,
2013-12-23 01:23:00,43.4,-9.6,30.32,WNW,293,0.0,1.1,1,0.00,,,0.00,WUHU216HW,2013-12-23 09:23:00,
2013-12-23 01:28:00,43.2,-9.8,30.32,SSW,203,1.8,1.8,1,0.00,,,0.00,WUHU216HW,2013-12-23 09:28:00,
2013-12-23 01:33:00,43.2,-9.8,30.32,SW,225,0.9,1.8,1,0.00,,,0.00,WUHU216HW,2013-12-23 09:33:00,
2013-12-23 01:38:00,43.2,-9.8,30.31,SSW,203,0.0,1.8,1,0.00,,,0.00,WUHU216HW,2013-12-23 09:38:00,
2013-12-23 01:43:00,43.4,-9.6,30.31,SSW,203,0.7,0.9,1,0.00,,,0.00,WUHU216HW,2013-12-23 09:43:00,
2013-12-23 01:48:00,43.6,-9.5,30.31,SSW,203,0.9,1.3,1,0.00,,,0.00,WUHU216HW,2013-12-23 09:48:00,
2013-12-23 01:53:00,43.6,-9.5,30.30,SSW,203,0.4,1.3,1,0.00,,,0.00,WUHU216HW,2013-12-23 09:53:00,
2013-12-23 01:58:00,43.6,-9.5,30.30,SSW,203,0.4,0.9,1,0.00,,,0.00,WUHU216HW,2013-12-23 09:58:00,
2013-12-23 02:03:00,43.6,-9.5,30.29,SSE,158,1.1,1.1,1,0.01,,,0.00,WUHU216HW,2013-12-23 10:03:00,
2013-12-23 02:08:00,43.6,-9.5,30.29,East,90,1.8,1.8,1,0.01,,,0.02,WUHU216HW,2013-12-23 10:08:00,
2013-12-23 02:13:00,43.6,-9.5,30.30,ENE,68,0.7,1.8,1,0.01,,,0.02,WUHU216HW,2013-12-23 10:13:00,
2013-12-23 02:18:00,43.6,-9.5,30.29,ENE,68,0.0,1.8,1,0.01,,,0.02,WUHU216HW,2013-12-23 10:18:00,
2013-12-23 02:23:00,43.6,-9.5,30.29,ENE,68,0.0,0.7,1,0.01,,,0.02,WUHU216HW,2013-12-23 10:23:00,
2013-12-23 02:28:00,43.6,-9.5,30.29,NNE,23,0.0,0.2,1,0.01,,,0.02,WUHU216HW,2013-12-23 10:28:00,
2013-12-23 02:33:00,43.6,-9.5,30.29,NNE,23,0.0,0.0,1,0.01,,,0.02,WUHU216HW,2013-12-23 10:33:00,
2013-12-23 02:38:00,43.4,-9.6,30.29,NNE,23,0.0,0.0,1,0.01,,,0.02,WUHU216HW,2013-12-23 10:38:00,
2013-12-23 02:43:00,43.4,-9.6,30.30,NNE,23,0.0,0.0,1,0.01,,,0.02,WUHU216HW,2013-12-23 10:43:00,
2013-12-23 02:48:00,43.4,-9.6,30.29,NE,45,0.0,0.0,1,0.01,,,0.02,WUHU216HW,2013-12-23 10:48:00,
2013-12-23 02:53:00,43.2,-9.8,30.28,NE,45,0.0,0.0,1,0.01,,,0.02,WUHU216HW,2013-12-23 10:53:00,
2013-12-23 02:58:00,43.2,-9.8,30.28,NE,45,0.0,0.0,1,0.01,,,0.02,WUHU216HW,2013-12-23 10:58:00,
2013-12-23 03:03:00,43.2,-9.8,30.28,NE,45,0.0,0.0,1,0.00,,,0.02,WUHU216HW,2013-12-23 11:03:00,
2013-12-23 03:08:00,43.2,-9.8,30.28,NW,315,0.0,0.0,1,0.00,,,0.02,WUHU216HW,2013-12-23 11:08:00,
2013-12-23 03:13:00,43.2,-9.8,30.28,NW,315,0.0,0.0,1,0.00,,,0.02,WUHU216HW,2013-12-23 11:13:00,
2013-12-23 03:18:00,43.2,-9.8,30.27,NW,315,0.0,0.0,1,0.00,,,0.02,WUHU216HW,2013-12-23 11:18:00,
2013-12-23 03:23:00,43.0,-9.9,30.27,NW,315,0.0,0.9,1,0.00,,,0.02,WUHU216HW,2013-12-23 11:23:00,
2013-12-23 03:28:00,43.0,-9.9,30.27,NW,315,0.0,0.9,1,0.00,,,0.02,WUHU216HW,2013-12-23 11:28:00,
2013-12-23 03:33:00,43.0,-9.9,30.26,NW,315,0.0,0.0,1,0.00,,,0.02,WUHU216HW,2013-12-23 11:33:00,
2013-12-23 03:38:00,42.8,-10.1,30.26,East,90,0.7,0.7,1,0.00,,,0.02,WUHU216HW,2013-12-23 11:38:00,
2013-12-23 03:43:00,42.8,-10.1,30.25,East,90,1.8,1.8,1,0.00,,,0.02,WUHU216HW,2013-12-23 11:43:00,
2013-12-23 03:48:00,42.8,-10.1,30.26,East,90,0.0,1.8,1,0.00,,,0.02,WUHU216HW,2013-12-23 11:48:00,
2013-12-23 03:53:00,42.8,-10.1,30.25,SSE,158,0.7,1.8,1,0.00,,,0.02,WUHU216HW,2013-12-23 11:53:00,
2013-12-23 03:58:00,42.8,-10.1,30.26,SW,225,0.7,0.9,1,0.00,,,0.02,WUHU216HW,2013-12-23 11:58:00,
2013-12-23 04:03:00,43.0,-9.9,30.26,North,0,1.1,1.1,1,0.00,,,0.02,WUHU216HW,2013-12-23 12:03:00,
2013-12-23 04:08:00,43.2,-9.8,30.26,West,270,1.6,1.6,1,0.00,,,0.02,WUHU216HW,2013-12-23 12:08:00,
2013-12-23 04:13:00,43.2,-9.8,30.26,West,270,0.0,1.6,1,0.00,,,0.02,WUHU216HW,2013-12-23 12:13:00,
2013-12-23 04:18:00,43.2,-9.8,30.27,West,270,0.7,1.6,1,0.00,,,0.02,WUHU216HW,2013-12-23 12:18:00,
2013-12-23 04:23:00,43.2,-9.8,30.27,WSW,248,2.5,2.5,1,0.00,,,0.02,WUHU216HW,2013-12-23 12:23:00,
2013-12-23 04:28:00,43.2,-9.8,30.27,NW,315,1.3,2.5,1,0.00,,,0.02,WUHU216HW,2013-12-23 12:28:00,
2013-12-23 04:33:00,43.2,-9.8,30.28,WSW,248,1.1,2.5,1,0.00,,,0.02,WUHU216HW,2013-12-23 12:33:00,
2013-12-23 04:38:00,43.2,-9.8,30.27,West,270,0.2,1.3,1,0.00,,,0.02,WUHU216HW,2013-12-23 12:38:00,
2013-12-23 04:43:00,43.4,-9.6,30.25,East,90,2.0,2.0,1,0.00,,,0.02,WUHU216HW,2013-12-23 12:43:00,
2013-12-23 04:48:00,43.6,-9.5,30.26,SSW,203,2.5,2.5,1,0.00,,,0.02,WUHU216HW,2013-12-23 12:48:00,
2013-12-23 04:53:00,43.6,-9.5,30.25,SSE,158,2.2,2.5,1,0.00,,,0.02,WUHU216HW,2013-12-23 12:53:00,
2013-12-23 04:58:00,43.7,-9.4,30.25,East,90,1.1,2.5,1,0.00,,,0.02,WUHU216HW,2013-12-23 12:58:00,
2013-12-23 05:03:00,43.7,-9.4,30.24,East,90,0.0,2.2,1,0.00,,,0.02,WUHU216HW,2013-12-23 13:03:00,
2013-12-23 05:08:00,43.6,-9.5,30.25,NNE,23,0.4,1.1,1,0.00,,,0.02,WUHU216HW,2013-12-23 13:08:00,
2013-12-23 05:13:00,43.4,-9.6,30.25,North,0,0.2,0.9,1,0.00,,,0.02,WUHU216HW,2013-12-23 13:13:00,
2013-12-23 05:18:00,43.2,-9.8,30.25,SE,135,0.4,0.4,1,0.00,,,0.02,WUHU216HW,2013-12-23 13:18:00,
2013-12-23 05:23:00,43.0,-9.9,30.25,WNW,293,0.7,0.7,1,0.00,,,0.02,WUHU216HW,2013-12-23 13:23:00,
2013-12-23 05:28:00,43.0,-9.9,30.23,WNW,293,0.0,0.7,1,0.00,,,0.02,WUHU216HW,2013-12-23 13:28:00,
2013-12-23 05:33:00,43.2,-9.8,30.24,WNW,293,0.0,0.7,1,0.00,,,0.02,WUHU216HW,2013-12-23 13:33:00,
2013-12-23 05:38:00,43.2,-9.8,30.25,NW,315,2.0,2.0,1,0.00,,,0.02,WUHU216HW,2013-12-23 13:38:00,
2013-12-23 05:43:00,43.2,-9.8,30.25,NE,45,0.9,2.0,1,0.00,,,0.02,WUHU216HW,2013-12-23 13:43:00,
2013-12-23 05:48:00,43.2,-9.8,30.25,WNW,293,1.3,2.0,1,0.00,,,0.02,WUHU216HW,2013-12-23 13:48:00,
2013-12-23 05:53:00,43.2,-9.8,30.24,WSW,248,0.4,1.3,1,0.00,,,0.02,WUHU216HW,2013-12-23 13:53:00,
2013-12-23 05:58:00,43.2,-9.8,30.25,WSW,248,0.4,1.3,1,0.01,,,0.03,WUHU216HW,2013-12-23 13:58:00,
2013-12-23 06:03:00,43.2,-9.8,30.25,East,90,1.8,1.8,1,0.01,,,0.03,WUHU216HW,2013-12-23 14:03:00,
2013-12-23 06:08:00,43.2,-9.8,30.25,NW,315,1.6,1.8,1,0.01,,,0.03,WUHU216HW,2013-12-23 14:08:00,
2013-12-23 06:13:00,43.6,-9.5,30.25,NW,315,1.8,1.8,1,0.01,,,0.03,WUHU216HW,2013-12-23 14:13:00,
2013-12-23 06:18:00,43.6,-9.5,30.24,West,270,0.4,1.8,1,0.01,,,0.03,WUHU216HW,2013-12-23 14:18:00,
2013-12-23 06:23:00,43.6,-9.5,30.24,SE,135,0.4,1.8,1,0.01,,,0.03,WUHU216HW,2013-12-23 14:23:00,
2013-12-23 06:28:00,43.4,-9.6,30.25,SW,225,0.0,0.4,1,0.01,,,0.03,WUHU216HW,2013-12-23 14:28:00,
2013-12-23 06:33:00,43.4,-9.6,30.24,SW,225,0.0,0.4,1,0.01,,,0.03,WUHU216HW,2013-12-23 14:33:00,
2013-12-23 06:38:00,43.4,-9.6,30.25,SW,225,0.0,0.0,1,0.01,,,0.03,WUHU216HW,2013-12-23 14:38:00,
2013-12-23 06:43:00,43.4,-9.6,30.25,SSE,158,0.9,0.9,1,0.01,,,0.03,WUHU216HW,2013-12-23 14:43:00,
2013-12-23 06:48:00,43.4,-9.6,30.25,SSE,158,0.0,0.9,1,0.01,,,0.03,WUHU216HW,2013-12-23 14:48:00,
2013-12-23 06:53:00,43.4,-9.6,30.26,SSE,158,0.4,0.9,1,0.01,,,0.03,WUHU216HW,2013-12-23 14:53:00,
2013-12-23 06:58:00,43.4,-9.6,30.25,SE,135,2.2,2.2,1,0.00,,,0.03,WUHU216HW,2013-12-23 14:58:00,
2013-12-23 07:03:00,43.2,-9.8,30.26,SSW,203,0.7,2.7,1,0.00,,,0.03,WUHU216HW,2013-12-23 15:03:00,
2013-12-23 07:08:00,43.6,-9.5,30.27,South,180,0.4,2.7,1,0.00,,,0.03,WUHU216HW,2013-12-23 15:08:00,
2013-12-23 07:13:00,43.6,-9.5,30.27,SSE,158,0.9,0.9,1,0.00,,,0.03,WUHU216HW,2013-12-23 15:13:00,
2013-12-23 07:18:00,43.6,-9.5,30.26,SE,135,0.4,0.9,1,0.00,,,0.03,WUHU216HW,2013-12-23 15:18:00,
2013-12-23 07:23:00,43.6,-9.5,30.25,SE,135,1.6,1.6,1,0.00,,,0.03,WUHU216HW,2013-12-23 15:23:00,
2013-12-23 07:28:00,43.6,-9.5,30.25,SE,135,0.4,1.6,1,0.00,,,0.03,WUHU216HW,2013-12-23 15:28:00,
2013-12-23 07:33:00,43.4,-9.6,30.24,ESE,113,1.6,1.6,1,0.00,,,0.03,WUHU216HW,2013-12-23 15:33:00,
2013-12-23 07:38:00,43.0,-9.9,30.24,East,90,0.0,1.6,1,0.00,,,0.03,WUHU216HW,2013-12-23 15:38:00,
2013-12-23 07:43:00,42.3,-10.4,30.23,SSE,158,0.4,1.8,1,0.00,,,0.03,WUHU216HW,2013-12-23 15:43:00,
2013-12-23 07:48:00,42.1,-10.6,30.24,ESE,113,1.1,1.8,1,0.00,,,0.03,WUHU216HW,2013-12-23 15:48:00,
2013-12-23 07:53:00,41.8,-10.8,30.24,North,0,0.4,1.1,1,0.00,,,0.03,WUHU216HW,2013-12-23 15:53:00,
2013-12-23 07:58:00,41.6,-11.0,30.24,North,0,0.0,1.1,1,0.00,,,0.03,WUHU216HW,2013-12-23 15:58:00,
2013-12-23 08:03:00,41.4,-11.1,30.24,SE,135,0.4,0.4,1,0.00,,,0.03,WUHU216HW,2013-12-23 16:03:00,
2013-12-23 08:08:00,41.6,-11.0,30.24,SE,135,0.4,0.4,1,0.00,,,0.03,WUHU216HW,2013-12-23 16:08:00,
2013-12-23 08:13:00,41.8,-10.8,30.25,SE,135,1.1,1.1,1,0.00,,,0.03,WUHU216HW,2013-12-23 16:13:00,
2013-12-23 08:18:00,42.5,-10.3,30.25,SSE,158,0.9,1.1,1,0.00,,,0.03,WUHU216HW,2013-12-23 16:18:00,
2013-12-23 08:23:00,42.8,-10.1,30.25,SE,135,3.4,3.4,1,0.00,,,0.03,WUHU216HW,2013-12-23 16:23:00,
2013-12-23 08:28:00,43.0,-9.9,30.25,ESE,113,0.4,3.4,1,0.00,,,0.03,WUHU216HW,2013-12-23 16:28:00,
2013-12-23 08:33:00,43.4,-9.6,30.25,NNW,338,1.1,3.4,1,0.00,,,0.03,WUHU216HW,2013-12-23 16:33:00,
2013-12-23 08:38:00,43.9,-9.2,30.26,SSE,158,0.4,1.3,1,0.00,,,0.03,WUHU216HW,2013-12-23 16:38:00,
2013-12-23 08:43:00,43.9,-9.2,30.26,SSE,158,0.4,1.1,1,0.00,,,0.03,WUHU216HW,2013-12-23 16:43:00,
2013-12-23 08:48:00,43.9,-9.2,30.26,SSE,158,0.7,0.7,1,0.00,,,0.03,WUHU216HW,2013-12-23 16:48:00,
2013-12-23 08:53:00,43.9,-9.2,30.26,SSE,158,1.8,1.8,1,0.00,,,0.03,WUHU216HW,2013-12-23 16:53:00,
2013-12-23 08:58:00,43.9,-9.2,30.26,SE,135,0.0,1.8,1,0.00,,,0.03,WUHU216HW,2013-12-23 16:58:00,
2013-12-23 09:03:00,43.9,-9.2,30.26,SE,135,0.0,1.8,1,0.00,,,0.03,WUHU216HW,2013-12-23 17:03:00,
2013-12-23 09:08:00,44.3,-8.9,30.26,SE,135,0.0,0.0,1,0.00,,,0.03,WUHU216HW,2013-12-23 17:08:00,
2013-12-23 09:13:00,44.3,-8.9,30.26,SE,135,0.0,0.0,1,0.00,,,0.03,WUHU216HW,2013-12-23 17:13:00,
2013-12-23 09:18:00,44.5,-8.8,30.26,SE,135,0.0,0.0,1,0.00,,,0.03,WUHU216HW,2013-12-23 17:18:00,
2013-12-23 09:23:00,45.0,-8.4,30.26,SW,225,0.0,0.7,1,0.00,,,0.03,WUHU216HW,2013-12-23 17:23:00,
2013-12-23 09:28:00,45.7,-7.7,30.26,SW,225,0.0,0.7,1,0.00,,,0.03,WUHU216HW,2013-12-23 17:28:00,
2013-12-23 09:33:00,46.4,-7.2,30.26,SW,225,0.0,0.0,1,0.00,,,0.03,WUHU216HW,2013-12-23 17:33:00,
2013-12-23 09:38:00,46.8,-6.9,30.26,SW,225,1.1,1.1,1,0.00,,,0.03,WUHU216HW,2013-12-23 17:38:00,
2013-12-23 09:43:00,46.4,-7.2,30.26,SW,225,0.4,1.1,1,0.00,,,0.03,WUHU216HW,2013-12-23 17:43:00,
2013-12-23 09:48:00,46.4,-7.2,30.26,ESE,113,2.0,2.0,1,0.00,,,0.03,WUHU216HW,2013-12-23 17:48:00,
2013-12-23 09:53:00,46.4,-7.2,30.26,West,270,4.0,4.0,1,0.00,,,0.03,WUHU216HW,2013-12-23 17:53:00,
2013-12-23 09:58:00,46.4,-7.2,30.26,SE,135,4.0,4.0,1,0.00,,,0.03,WUHU216HW,2013-12-23 17:58:00,
2013-12-23 10:03:00,46.4,-7.2,30.26,West,270,2.2,4.0,1,0.00,,,0.03,WUHU216HW,2013-12-23 18:03:00,
2013-12-23 10:08:00,46.8,-6.9,30.27,WNW,293,1.1,4.0,1,0.00,,,0.03,WUHU216HW,2013-12-23 18:08:00,
2013-12-23 10:13:00,47.0,-6.7,30.27,WSW,248,0.4,2.2,1,0.00,,,0.03,WUHU216HW,2013-12-23 18:13:00,
2013-12-23 10:18:00,47.2,-6.7,30.27,SW,225,1.8,1.8,1,0.00,,,0.03,WUHU216HW,2013-12-23 18:18:00,
2013-12-23 10:23:00,47.3,-6.5,30.27,NW,315,3.6,3.6,1,0.00,,,0.03,WUHU216HW,2013-12-23 18:23:00,
2013-12-23 10:28:00,47.5,-6.3,30.27,West,270,4.9,4.9,1,0.00,,,0.03,WUHU216HW,2013-12-23 18:28:00,
2013-12-23 10:33:00,47.9,-6.0,30.27,West,270,7.6,7.6,1,0.00,,,0.03,WUHU216HW,2013-12-23 18:33:00,
2013-12-23 10:38:00,47.9,-6.0,30.27,West,270,7.6,7.6,1,0.00,,,0.03,WUHU216HW,2013-12-23 18:38:00,
2013-12-23 10:43:00,47.9,-6.0,30.27,NE,45,4.0,7.6,1,0.00,,,0.03,WUHU216HW,2013-12-23 18:43:00,
2013-12-23 10:48:00,47.9,-6.0,30.27,West,270,9.2,9.2,1,0.00,,,0.03,WUHU216HW,2013-12-23 18:48:00,
2013-12-23 10:53:00,48.6,-5.5,30.27,WNW,293,7.4,9.2,1,0.00,,,0.03,WUHU216HW,2013-12-23 18:53:00,
2013-12-23 10:58:00,47.9,-6.0,30.26,WNW,293,7.6,9.2,1,0.00,,,0.03,WUHU216HW,2013-12-23 18:58:00,
2013-12-23 11:03:00,47.2,-6.7,30.27,West,270,11.6,11.6,1,0.00,,,0.03,WUHU216HW,2013-12-23 19:03:00,
2013-12-23 11:08:00,47.0,-6.7,30.27,West,270,8.9,11.6,1,0.00,,,0.03,WUHU216HW,2013-12-23 19:08:00,
2013-12-23 11:13:00,47.2,-6.7,30.27,WSW,248,8.3,11.6,1,0.00,,,0.03,WUHU216HW,2013-12-23 19:13:00,
2013-12-23 11:18:00,48.6,-5.5,30.27,West,270,5.6,8.9,1,0.00,,,0.03,WUHU216HW,2013-12-23 19:18:00,
2013-12-23 11:23:00,49.3,-5.0,30.27,West,270,8.7,8.7,1,0.00,,,0.03,WUHU216HW,2013-12-23 19:23:00,
2013-12-23 11:28:00,49.7,-4.8,30.27,WSW,248,5.6,8.7,1,0.00,,,0.03,WUHU216HW,2013-12-23 19:28:00,
2013-12-23 11:33:00,50.0,-4.5,30.27,WNW,293,10.5,10.5,1,0.00,,,0.03,WUHU216HW,2013-12-23 19:33:00,
2013-12-23 11:38:00,50.2,-4.3,30.27,SE,135,7.8,10.5,1,0.00,,,0.03,WUHU216HW,2013-12-23 19:38:00,
2013-12-23 11:43:00,50.6,-4.0,30.28,WNW,293,6.7,10.5,1,0.00,,,0.03,WUHU216HW,2013-12-23 19:43:00,
2013-12-23 11:48:00,51.7,-3.2,30.28,WSW,248,8.5,8.5,1,0.00,,,0.03,WUHU216HW,2013-12-23 19:48:00,
2013-12-23 11:53:00,51.5,-3.3,30.28,SW,225,6.9,8.5,1,0.00,,,0.03,WUHU216HW,2013-12-23 19:53:00,
2013-12-23 11:58:00,51.5,-3.3,30.28,WNW,293,6.7,8.5,1,0.00,,,0.03,WUHU216HW,2013-12-23 19:58:00,
2013-12-23 12:03:00,51.8,-3.1,30.29,WNW,293,4.7,6.9,1,0.00,,,0.03,WUHU216HW,2013-12-23 20:03:00,
2013-12-23 12:08:00,52.4,-2.6,30.29,West,270,8.1,8.1,1,0.00,,,0.03,WUHU216HW,2013-12-23 20:08:00,
2013-12-23 12:13:00,52.2,-2.8,30.29,WNW,293,7.6,8.1,1,0.00,,,0.03,WUHU216HW,2013-12-23 20:13:00,
2013-12-23 12:18:00,52.4,-2.6,30.29,WNW,293,5.6,8.1,1,0.00,,,0.03,WUHU216HW,2013-12-23 20:18:00,
2013-12-23 12:23:00,52.4,-2.6,30.29,West,270,7.2,7.6,1,0.00,,,0.03,WUHU216HW,2013-12-23 20:23:00,
2013-12-23 12:28:00,52.2,-2.8,30.29,WSW,248,7.8,7.8,1,0.00,,,0.03,WUHU216HW,2013-12-23 20:28:00,
2013-12-23 12:33:00,52.4,-2.6,30.29,WNW,293,6.9,7.8,1,0.00,,,0.03,WUHU216HW,2013-12-23 20:33:00,
2013-12-23 12:38:00,52.2,-2.8,30.29,WNW,293,5.6,7.8,1,0.00,,,0.03,WUHU216HW,2013-12-23 20:38:00,
2013-12-23 12:43:00,52.0,-2.9,30.29,WNW,293,5.4,6.9,1,0.00,,,0.03,WUHU216HW,2013-12-23 20:43:00,
2013-12-23 12:48:00,52.2,-2.8,30.29,WNW,293,3.6,5.6,1,0.00,,,0.03,WUHU216HW,2013-12-23 20:48:00,
2013-12-23 12:53:00,52.6,-2.5,30.29,NW,315,3.8,5.4,1,0.00,,,0.03,WUHU216HW,2013-12-23 20:53:00,
2013-12-23 12:58:00,52.6,-2.5,30.29,West,270,4.0,4.0,1,0.00,,,0.03,WUHU216HW,2013-12-23 20:58:00,
2013-12-23 13:03:00,52.4,-2.6,30.29,WNW,293,5.8,5.8,1,0.00,,,0.03,WUHU216HW,2013-12-23 21:03:00,
2013-12-23 13:08:00,52.4,-2.6,30.29,West,270,6.7,6.7,1,0.00,,,0.03,WUHU216HW,2013-12-23 21:08:00,
2013-12-23 13:13:00,51.8,-3.1,30.29,WNW,293,6.9,6.9,1,0.00,,,0.03,WUHU216HW,2013-12-23 21:13:00,
2013-12-23 13:18:00,51.5,-3.3,30.30,WNW,293,6.9,6.9,1,0.00,,,0.03,WUHU216HW,2013-12-23 21:18:00,
2013-12-23 13:23:00,51.5,-3.3,30.30,WNW,293,6.0,6.9,1,0.00,,,0.03,WUHU216HW,2013-12-23 21:23:00,
2013-12-23 13:28:00,51.5,-3.3,30.30,WNW,293,5.4,7.8,1,0.00,,,0.03,WUHU216HW,2013-12-23 21:28:00,
2013-12-23 13:33:00,51.3,-3.5,30.30,WNW,293,8.5,8.5,1,0.00,,,0.03,WUHU216HW,2013-12-23 21:33:00,
2013-12-23 13:38:00,51.1,-3.6,30.30,West,270,6.3,8.5,1,0.00,,,0.03,WUHU216HW,2013-12-23 21:38:00,
2013-12-23 13:43:00,51.3,-3.5,30.30,WNW,293,5.6,8.5,1,0.00,,,0.03,WUHU216HW,2013-12-23 21:43:00,
2013-12-23 13:48:00,51.3,-3.5,30.31,WNW,293,7.8,7.8,1,0.00,,,0.03,WUHU216HW,2013-12-23 21:48:00,
2013-12-23 13:53:00,51.1,-3.6,30.31,WNW,293,4.9,9.8,1,0.00,,,0.03,WUHU216HW,2013-12-23 21:53:00,
2013-12-23 13:58:00,51.1,-3.6,30.31,West,270,5.8,9.8,1,0.00,,,0.03,WUHU216HW,2013-12-23 21:58:00,
2013-12-23 14:03:00,51.1,-3.6,30.32,NW,315,4.3,5.8,1,0.00,,,0.03,WUHU216HW,2013-12-23 22:03:00,
2013-12-23 14:08:00,50.8,-4.0,30.32,SW,225,7.8,7.8,1,0.00,,,0.03,WUHU216HW,2013-12-23 22:08:00,
2013-12-23 14:13:00,50.2,-4.3,30.32,West,270,7.2,8.3,1,0.00,,,0.03,WUHU216HW,2013-12-23 22:13:00,
2013-12-23 14:18:00,50.0,-4.5,30.32,WNW,293,7.6,8.3,1,0.00,,,0.03,WUHU216HW,2013-12-23 22:18:00,
2013-12-23 14:23:00,49.9,-4.6,30.32,NW,315,6.5,7.6,1,0.00,,,0.03,WUHU216HW,2013-12-23 22:23:00,
2013-12-23 14:28:00,48.6,-5.5,30.33,West,270,6.9,7.6,1,0.00,,,0.03,WUHU216HW,2013-12-23 22:28:00,
2013-12-23 14:33:00,48.4,-5.7,30.33,SSE,158,6.9,6.9,1,0.00,,,0.03,WUHU216HW,2013-12-23 22:33:00,
2013-12-23 14:38:00,47.7,-6.2,30.34,WNW,293,7.8,7.8,1,0.00,,,0.03,WUHU216HW,2013-12-23 22:38:00,
2013-12-23 14:43:00,47.7,-6.2,30.34,WNW,293,7.6,7.8,1,0.00,,,0.03,WUHU216HW,2013-12-23 22:43:00,
2013-12-23 14:48:00,47.7,-6.2,30.35,WNW,293,5.6,7.8,1,0.00,,,0.03,WUHU216HW,2013-12-23 22:48:00,
2013-12-23 14:53:00,47.5,-6.3,30.35,WSW,248,6.5,7.6,1,0.00,,,0.03,WUHU216HW,2013-12-23 22:53:00,
2013-12-23 14:58:00,47.2,-6.7,30.36,WNW,293,5.1,6.5,1,0.00,,,0.03,WUHU216HW,2013-12-23 22:58:00,
2013-12-23 15:03:00,47.0,-6.7,30.36,NW,315,6.3,6.5,1,0.00,,,0.03,WUHU216HW,2013-12-23 23:03:00,
2013-12-23 15:08:00,47.0,-6.7,30.36,WNW,293,7.6,7.6,1,0.00,,,0.03,WUHU216HW,2013-12-23 23:08:00,
2013-12-23 15:13:00,46.8,-6.9,30.37,WNW,293,6.0,7.6,1,0.00,,,0.03,WUHU216HW,2013-12-23 23:13:00,
2013-12-23 15:18:00,46.6,-7.0,30.37,West,270,6.3,7.6,1,0.00,,,0.03,WUHU216HW,2013-12-23 23:18:00,
2013-12-23 15:23:00,46.4,-7.2,30.38,WNW,293,8.3,8.3,1,0.00,,,0.03,WUHU216HW,2013-12-23 23:23:00,
2013-12-23 15:28:00,46.3,-7.4,30.38,WNW,293,6.3,8.3,1,0.00,,,0.03,WUHU216HW,2013-12-23 23:28:00,
2013-12-23 15:33:00,46.1,-7.5,30.38,WNW,293,6.5,8.3,1,0.00,,,0.03,WUHU216HW,2013-12-23 23:33:00,
2013-12-23 15:38:00,45.9,-7.6,30.38,West,270,7.2,7.2,1,0.00,,,0.03,WUHU216HW,2013-12-23 23:38:00,
2013-12-23 15:43:00,45.9,-7.6,30.38,West,270,4.7,7.2,1,0.00,,,0.03,WUHU216HW,2013-12-23 23:43:00,
2013-12-23 15:48:00,45.5,-7.9,30.38,WSW,248,4.0,7.2,1,0.00,,,0.03,WUHU216HW,2013-12-23 23:48:00,
2013-12-23 15:53:00,45.4,-8.1,30.38,West,270,4.5,4.7,1,0.00,,,0.03,WUHU216HW,2013-12-23 23:53:00,
2013-12-23 15:58:00,45.2,-8.2,30.39,SW,225,3.1,4.5,1,0.00,,,0.03,WUHU216HW,2013-12-23 23:58:00,
2013-12-23 16:03:00,45.0,-8.4,30.39,West,270,8.3,8.3,1,0.00,,,0.03,WUHU216HW,2013-12-24 00:03:00,
2013-12-23 16:08:00,45.0,-8.4,30.39,NW,315,4.0,8.3,1,0.00,,,0.03,WUHU216HW,2013-12-24 00:08:00,
2013-12-23 16:13:00,44.8,-8.4,30.40,SE,135,3.4,8.3,1,0.00,,,0.03,WUHU216HW,2013-12-24 00:13:00,
2013-12-23 16:18:00,44.6,-8.6,30.40,WNW,293,3.4,4.3,1,0.00,,,0.03,WUHU216HW,2013-12-24 00:18:00,
2013-12-23 16:23:00,44.6,-8.6,30.41,WNW,293,5.6,5.6,1,0.00,,,0.03,WUHU216HW,2013-12-24 00:23:00,
2013-12-23 16:28:00,44.6,-8.6,30.41,WNW,293,3.4,5.6,1,0.00,,,0.03,WUHU216HW,2013-12-24 00:28:00,
2013-12-23 16:33:00,44.6,-8.6,30.41,West,270,4.0,5.6,1,0.00,,,0.03,WUHU216HW,2013-12-24 00:33:00,
2013-12-23 16:38:00,44.3,-8.9,30.40,WSW,248,4.0,4.0,1,0.00,,,0.03,WUHU216HW,2013-12-24 00:38:00,
2013-12-23 16:43:00,44.3,-8.9,30.40,WNW,293,5.1,5.1,1,0.00,,,0.03,WUHU216HW,2013-12-24 00:43:00,
2013-12-23 16:48:00,44.5,-8.8,30.40,WNW,293,4.5,5.1,1,0.00,,,0.03,WUHU216HW,2013-12-24 00:48:00,
2013-12-23 16:53:00,44.3,-8.9,30.40,WNW,293,6.7,6.7,1,0.00,,,0.03,WUHU216HW,2013-12-24 00:53:00,
2013-12-23 16:58:00,44.3,-8.9,30.42,WNW,293,4.7,6.7,1,0.00,,,0.03,WUHU216HW,2013-12-24 00:58:00,
2013-12-23 17:03:00,43.7,-9.4,30.42,West,270,5.6,6.7,1,0.00,,,0.03,WUHU216HW,2013-12-24 01:03:00,
2013-12-23 17:08:00,43.6,-9.5,30.43,WNW,293,4.5,5.6,1,0.00,,,0.03,WUHU216HW,2013-12-24 01:08:00,
2013-12-23 17:13:00,43.6,-9.5,30.43,West,270,7.2,7.2,1,0.00,,,0.03,WUHU216HW,2013-12-24 01:13:00,
2013-12-23 17:18:00,43.6,-9.5,30.43,NW,315,6.3,7.2,1,0.00,,,0.03,WUHU216HW,2013-12-24 01:18:00,
2013-12-23 17:23:00,43.7,-9.4,30.43,WNW,293,6.3,7.2,1,0.00,,,0.03,WUHU216HW,2013-12-24 01:23:00,
2013-12-23 17:28:00,43.9,-9.2,30.44,West,270,5.8,6.7,1,0.00,,,0.03,WUHU216HW,2013-12-24 01:28:00,
2013-12-23 17:33:00,43.9,-9.2,30.44,West,270,6.0,6.3,1,0.00,,,0.03,WUHU216HW,2013-12-24 01:33:00,
2013-12-23 17:38:00,43.2,-9.8,30.44,WNW,293,3.8,6.0,1,0.00,,,0.03,WUHU216HW,2013-12-24 01:38:00,
2013-12-23 17:43:00,43.2,-9.8,30.45,WNW,293,4.9,6.0,1,0.00,,,0.03,WUHU216HW,2013-12-24 01:43:00,
2013-12-23 17:48:00,43.4,-9.6,30.45,WNW,293,3.4,4.9,1,0.00,,,0.03,WUHU216HW,2013-12-24 01:48:00,
2013-12-23 17:53:00,43.4,-9.6,30.45,West,270,6.0,6.0,1,0.00,,,0.03,WUHU216HW,2013-12-24 01:53:00,
2013-12-23 17:58:00,43.2,-9.8,30.46,WSW,248,4.7,6.0,1,0.00,,,0.03,WUHU216HW,2013-12-24 01:58:00,
2013-12-23 18:03:00,43.0,-9.9,30.46,West,270,4.7,6.0,1,0.00,,,0.03,WUHU216HW,2013-12-24 02:03:00,
2013-12-23 18:08:00,43.0,-9.9,30.46,WNW,293,5.4,5.4,1,0.00,,,0.03,WUHU216HW,2013-12-24 02:08:00,
2013-12-23 18:13:00,43.2,-9.8,30.46,WNW,293,4.3,6.3,1,0.00,,,0.03,WUHU216HW,2013-12-24 02:13:00,
2013-12-23 18:18:00,43.0,-9.9,30.47,WNW,293,5.1,6.3,1,0.00,,,0.03,WUHU216HW,2013-12-24 02:18:00,
2013-12-23 18:23:00,42.8,-10.1,30.47,WNW,293,5.6,5.6,1,0.00,,,0.03,WUHU216HW,2013-12-24 02:23:00,
2013-12-23 18:28:00,42.8,-10.1,30.47,NNW,338,5.4,5.6,1,0.00,,,0.03,WUHU216HW,2013-12-24 02:28:00,
2013-12-23 18:33:00,42.8,-10.1,30.47,West,270,5.1,6.0,1,0.00,,,0.03,WUHU216HW,2013-12-24 02:33:00,
2013-12-23 18:38:00,42.8,-10.1,30.47,WNW,293,6.0,6.0,1,0.00,,,0.03,WUHU216HW,2013-12-24 02:38:00,
2013-12-23 18:43:00,43.0,-9.9,30.48,WNW,293,6.0,6.0,1,0.00,,,0.03,WUHU216HW,2013-12-24 02:43:00,
2013-12-23 18:48:00,42.8,-10.1,30.49,West,270,6.3,6.3,1,0.00,,,0.03,WUHU216HW,2013-12-24 02:48:00,
2013-12-23 18:53:00,42.8,-10.1,30.49,WNW,293,4.3,6.3,1,0.00,,,0.03,WUHU216HW,2013-12-24 02:53:00,
2013-12-23 18:58:00,42.7,-10.2,30.49,NW,315,2.5,6.3,1,0.00,,,0.03,WUHU216HW,2013-12-24 02:58:00,
2013-12-23 19:03:00,42.5,-10.3,30.49,SW,225,2.2,2.7,1,0.00,,,0.03,WUHU216HW,2013-12-24 03:03:00,
2013-12-23 19:08:00,42.3,-10.4,30.49,WSW,248,1.1,3.8,1,0.00,,,0.03,WUHU216HW,2013-12-24 03:08:00,
2013-12-23 19:13:00,42.1,-10.6,30.49,WNW,293,5.1,5.1,1,0.00,,,0.03,WUHU216HW,2013-12-24 03:13:00,
2013-12-23 19:18:00,42.1,-10.6,30.49,WNW,293,2.0,5.1,1,0.00,,,0.03,WUHU216HW,2013-12-24 03:18:00,
2013-12-23 19:23:00,42.3,-10.4,30.50,WNW,293,4.7,5.1,1,0.00,,,0.03,WUHU216HW,2013-12-24 03:23:00,
2013-12-23 19:28:00,42.5,-10.3,30.50,West,270,3.1,4.7,1,0.00,,,0.03,WUHU216HW,2013-12-24 03:28:00,
2013-12-23 19:33:00,42.7,-10.2,30.50,WSW,248,4.0,5.6,1,0.00,,,0.03,WUHU216HW,2013-12-24 03:33:00,
2013-12-23 19:38:00,42.8,-10.1,30.51,West,270,3.6,5.6,1,0.00,,,0.03,WUHU216HW,2013-12-24 03:38:00,
2013-12-23 19:43:00,42.7,-10.2,30.52,WNW,293,4.0,4.7,1,0.00,,,0.03,WUHU216HW,2013-12-24 03:43:00,
2013-12-23 19:48:00,42.1,-10.6,30.52,SSW,203,1.8,4.7,1,0.00,,,0.03,WUHU216HW,2013-12-24 03:48:00,
2013-12-23 19:53:00,41.6,-11.0,30.53,SE,135,1.8,4.0,1,0.00,,,0.03,WUHU216HW,2013-12-24 03:53:00,
2013-12-23 19:58:00,41.0,-11.3,30.53,WNW,293,0.4,1.8,1,0.00,,,0.03,WUHU216HW,2013-12-24 03:58:00,
2013-12-23 20:03:00,40.9,-11.5,30.53,West,270,0.2,1.8,1,0.00,,,0.03,WUHU216HW,2013-12-24 04:03:00,
2013-12-23 20:08:00,40.3,-11.9,30.53,West,270,0.4,0.7,1,0.00,,,0.03,WUHU216HW,2013-12-24 04:08:00,
2013-12-23 20:13:00,40.0,-12.2,30.53,West,270,0.7,0.7,1,0.00,,,0.03,WUHU216HW,2013-12-24 04:13:00,
2013-12-23 20:18:00,40.0,-12.2,30.54,SSE,158,0.4,0.7,1,0.00,,,0.03,WUHU216HW,2013-12-24 04:18:00,
2013-12-23 20:23:00,40.0,-12.2,30.54,SW,225,0.2,0.7,1,0.00,,,0.03,WUHU216HW,2013-12-24 04:23:00,
2013-12-23 20:28:00,39.6,-12.5,30.54,NW,315,0.7,0.7,1,0.00,,,0.03,WUHU216HW,2013-12-24 04:28:00,
2013-12-23 20:33:00,39.2,-12.8,30.54,SSW,203,0.4,0.7,1,0.00,,,0.03,WUHU216HW,2013-12-24 04:33:00,
2013-12-23 20:38:00,39.1,-13.0,30.55,West,270,1.8,1.8,1,0.00,,,0.03,WUHU216HW,2013-12-24 04:38:00,
2013-12-23 20:43:00,39.6,-12.5,30.55,SSW,203,1.8,1.8,1,0.00,,,0.03,WUHU216HW,2013-12-24 04:43:00,
2013-12-23 20:48:00,40.0,-12.2,30.55,East,90,1.8,1.8,1,0.00,,,0.03,WUHU216HW,2013-12-24 04:48:00,
2013-12-23 20:53:00,40.5,-11.8,30.55,WSW,248,3.4,3.4,1,0.00,,,0.03,WUHU216HW,2013-12-24 04:53:00,
2013-12-23 20:58:00,40.7,-11.6,30.55,WSW,248,0.9,3.4,1,0.00,,,0.03,WUHU216HW,2013-12-24 04:58:00,
2013-12-23 21:01:00,40.7,-11.6,30.55,SSW,203,2.5,3.4,1,0.00,,,0.03,WUHU216HW,2013-12-24 05:01:00,
2013-12-23 21:06:00,40.1,-12.1,30.56,NNW,338,1.6,2.5,1,0.00,,,0.03,WUHU216HW,2013-12-24 05:06:00,
2013-12-23 21:11:00,40.0,-12.2,30.56,SSE,158,2.5,2.5,1,0.00,,,0.03,WUHU216HW,2013-12-24 05:11:00,
2013-12-23 21:16:00,38.9,-13.0,30.56,SSE,158,1.1,2.5,1,0.00,,,0.03,WUHU216HW,2013-12-24 05:16:00,
2013-12-23 21:21:00,38.3,-13.5,30.56,SSW,203,1.6,2.5,1,0.00,,,0.03,WUHU216HW,2013-12-24 05:21:00,
2013-12-23 21:26:00,38.0,-13.8,30.56,SE,135,2.2,2.2,1,0.00,,,0.03,WUHU216HW,2013-12-24 05:26:00,
2013-12-23 21:31:00,37.6,-14.0,30.57,SSE,158,0.2,2.2,1,0.00,,,0.03,WUHU216HW,2013-12-24 05:31:00,
2013-12-23 21:36:00,37.3,-14.4,30.57,SE,135,0.7,2.2,1,0.00,,,0.03,WUHU216HW,2013-12-24 05:36:00,
2013-12-23 21:41:00,36.9,-14.7,30.58,South,180,1.6,1.6,1,0.00,,,0.03,WUHU216HW,2013-12-24 05:41:00,
2013-12-23 21:46:00,36.7,-14.7,30.58,West,270,1.8,1.8,1,0.00,,,0.03,WUHU216HW,2013-12-24 05:46:00,
2013-12-23 21:51:00,36.4,-15.1,30.58,WNW,293,1.8,1.8,1,0.00,,,0.03,WUHU216HW,2013-12-24 05:51:00,
2013-12-23 21:56:00,36.5,-14.9,30.58,SW,225,0.9,1.8,1,0.00,,,0.03,WUHU216HW,2013-12-24 05:56:00,
2013-12-23 22:01:00,36.9,-14.7,30.59,South,180,2.0,2.0,1,0.00,,,0.03,WUHU216HW,2013-12-24 06:01:00,
2013-12-23 22:06:00,37.4,-14.2,30.59,WSW,248,0.4,2.0,1,0.00,,,0.03,WUHU216HW,2013-12-24 06:06:00,
2013-12-23 22:11:00,37.3,-14.4,30.59,SE,135,0.9,2.0,1,0.00,,,0.03,WUHU216HW,2013-12-24 06:11:00,
2013-12-23 22:16:00,37.1,-14.5,30.59,SSE,158,0.9,1.3,1,0.00,,,0.03,WUHU216HW,2013-12-24 06:16:00,
2013-12-23 22:21:00,37.1,-14.5,30.60,SE,135,1.1,1.1,1,0.00,,,0.03,WUHU216HW,2013-12-24 06:21:00,
2013-12-23 22:26:00,37.1,-14.5,30.60,SE,135,0.2,1.1,1,0.00,,,0.03,WUHU216HW,2013-12-24 06:26:00,
2013-12-23 22:31:00,36.9,-14.7,30.61,SSE,158,0.4,1.6,1,0.00,,,0.03,WUHU216HW,2013-12-24 06:31:00,
2013-12-23 22:36:00,36.7,-14.7,30.60,SE,135,0.0,1.6,1,0.00,,,0.03,WUHU216HW,2013-12-24 06:36:00,
2013-12-23 22:41:00,36.4,-15.1,30.60,NE,45,0.0,0.4,1,0.00,,,0.03,WUHU216HW,2013-12-24 06:41:00,
2013-12-23 22:46:00,36.0,-15.4,30.61,SSE,158,1.1,1.3,1,0.00,,,0.03,WUHU216HW,2013-12-24 06:46:00,
2013-12-23 22:51:00,35.3,-15.9,30.62,SW,225,1.1,1.3,1,0.00,,,0.03,WUHU216HW,2013-12-24 06:51:00,
2013-12-23 22:56:00,34.9,-16.2,30.62,SSW,203,0.9,1.1,1,0.00,,,0.03,WUHU216HW,2013-12-24 06:56:00,
2013-12-23 23:01:00,34.9,-16.2,30.62,WNW,293,0.0,1.1,1,0.00,,,0.03,WUHU216HW,2013-12-24 07:01:00,
2013-12-23 23:06:00,34.9,-16.2,30.62,West,270,0.9,0.9,1,0.00,,,0.03,WUHU216HW,2013-12-24 07:06:00,
2013-12-23 23:11:00,34.9,-16.2,30.62,WSW,248,1.3,1.3,1,0.00,,,0.03,WUHU216HW,2013-12-24 07:11:00,
2013-12-23 23:16:00,34.9,-16.2,30.62,SSE,158,2.2,2.2,1,0.00,,,0.03,WUHU216HW,2013-12-24 07:16:00,
2013-12-23 23:21:00,34.9,-16.2,30.62,SSE,158,1.8,2.2,1,0.00,,,0.03,WUHU216HW,2013-12-24 07:21:00,
2013-12-23 23:26:00,35.1,-16.1,30.63,WNW,293,1.3,2.2,1,0.00,,,0.03,WUHU216HW,2013-12-24 07:26:00,
2013-12-23 23:31:00,35.1,-16.1,30.63,SE,135,0.2,1.8,1,0.00,,,0.03,WUHU216HW,2013-12-24 07:31:00,
2013-12-23 23:36:00,34.9,-16.2,30.63,East,90,1.3,1.3,1,0.00,,,0.03,WUHU216HW,2013-12-24 07:36:00,
2013-12-23 23:41:00,34.7,-16.4,30.64,ENE,68,0.9,1.3,1,0.00,,,0.03,WUHU216HW,2013-12-24 07:41:00,
2013-12-23 23:46:00,34.7,-16.4,30.64,SE,135,0.7,1.3,1,0.00,,,0.03,WUHU216HW,2013-12-24 07:46:00,
2013-12-23 23:51:00,34.6,-16.6,30.64,SE,135,1.1,1.3,1,0.00,,,0.03,WUHU216HW,2013-12-24 07:51:00,
2013-12-23 23:56:00,34.6,-16.6,30.64,SSE,158,0.0,1.3,1,0.00,,,0.03,WUHU216HW,2013-12-24 07:56:00,